createdAt,value
2022-08-07T00:02:35.622Z,2.15
2022-08-07T00:04:15.486Z,2.10
2022-08-07T00:06:51.334Z,2.28
2022-08-07T00:09:21.139Z,2.00
2022-08-07T00:11:55.729Z,2.03
2022-08-07T00:14:31.199Z,2.55
2022-08-07T00:17:01.714Z,2.35
2022-08-07T00:19:59.701Z,2.00
2022-08-07T00:22:24.637Z,2.22
2022-08-07T00:25:04.870Z,1.90
2022-08-07T00:27:51.918Z,2.28
2022-08-07T00:30:26.391Z,1.80
2022-08-07T00:32:58.657Z,1.90
2022-08-07T00:35:26.100Z,2.03
2022-08-07T00:37:53.344Z,2.08
2022-08-07T00:40:40.191Z,2.58
2022-08-07T00:44:00.279Z,2.30
2022-08-07T00:46:01.738Z,1.90
2022-08-07T00:48:32.068Z,1.83
2022-08-07T00:51:02.020Z,2.00
2022-08-07T00:53:38.925Z,1.85
2022-08-07T00:56:15.887Z,2.00
2022-08-07T00:58:47.359Z,2.20
2022-08-07T01:01:20.482Z,1.92
2022-08-07T01:03:55.420Z,2.25
2022-08-07T01:06:29.687Z,1.73
2022-08-07T01:09:00.646Z,2.40
2022-08-07T01:12:27.578Z,1.98
2022-08-07T01:14:21.184Z,2.00
2022-08-07T01:16:55.735Z,2.33
2022-08-07T01:19:24.764Z,2.10
2022-08-07T01:21:55.320Z,2.05
2022-08-07T01:24:22.878Z,2.40
2022-08-07T01:26:55.744Z,2.10
2022-08-07T01:29:31.345Z,2.38
2022-08-07T01:32:01.033Z,1.85
2022-08-07T01:34:33.421Z,2.00
2022-08-07T01:37:00.967Z,2.08
2022-08-07T01:39:40.375Z,2.20
2022-08-07T01:42:37.586Z,2.10
2022-08-07T01:45:02.923Z,2.17
2022-08-07T01:48:17.639Z,2.17
2022-08-07T01:50:16.905Z,1.98
2022-08-07T01:53:00.210Z,2.22
2022-08-07T01:55:33.644Z,2.17
2022-08-07T01:58:06.616Z,2.28
2022-08-07T02:00:57.955Z,2.05
2022-08-07T02:03:48.931Z,2.25
2022-08-07T02:06:31.305Z,2.20
2022-08-07T02:09:04.771Z,1.90
2022-08-07T02:12:02.955Z,2.38
2022-08-07T02:14:36.366Z,2.15
2022-08-07T02:17:08.193Z,2.25
2022-08-07T02:20:05.846Z,2.50
2022-08-07T02:22:30.505Z,2.40
2022-08-07T02:25:00.440Z,2.40
2022-08-07T02:27:34.217Z,2.63
2022-08-07T02:30:04.027Z,2.20
2022-08-07T02:32:38.669Z,2.28
2022-08-07T02:35:11.118Z,2.28
2022-08-07T02:37:44.178Z,2.17
2022-08-07T02:40:35.104Z,2.28
2022-08-07T02:42:59.336Z,2.40
2022-08-07T02:45:57.598Z,2.30
2022-08-07T02:48:18.505Z,1.95
2022-08-07T02:50:51.070Z,2.22
2022-08-07T02:53:38.309Z,2.22
2022-08-07T02:56:17.437Z,2.17
2022-08-07T02:58:53.967Z,2.05
2022-08-07T03:01:36.706Z,2.00
2022-08-07T03:04:12.803Z,2.20
2022-08-07T03:06:44.846Z,2.25
2022-08-07T03:09:13.802Z,2.42
2022-08-07T03:11:52.530Z,2.47
2022-08-07T03:14:25.789Z,2.30
2022-08-07T03:16:52.806Z,2.25
2022-08-07T03:19:23.011Z,2.50
2022-08-07T03:21:52.589Z,1.98
2022-08-07T03:24:27.540Z,2.17
2022-08-07T03:26:58.385Z,2.22
2022-08-07T03:29:30.767Z,2.22
2022-08-07T03:32:07.408Z,2.50
2022-08-07T03:34:47.548Z,2.10
2022-08-07T03:37:32.832Z,2.22
2022-08-07T03:40:15.913Z,2.42
2022-08-07T03:42:46.225Z,2.53
2022-08-07T03:45:30.214Z,2.30
2022-08-07T03:47:59.178Z,2.28
2022-08-07T03:50:28.543Z,2.42
2022-08-07T03:52:59.710Z,2.17
2022-08-07T03:55:53.107Z,2.38
2022-08-07T03:59:04.835Z,2.10
2022-08-07T04:01:10.946Z,2.30
2022-08-07T04:03:53.476Z,2.88
2022-08-07T04:06:37.143Z,2.50
2022-08-07T04:09:06.473Z,2.10
2022-08-07T04:12:24.031Z,2.40
2022-08-07T04:14:38.751Z,2.20
2022-08-07T04:17:20.270Z,2.35
2022-08-07T04:19:54.793Z,2.55
2022-08-07T04:22:29.341Z,2.50
2022-08-07T04:24:58.148Z,2.40
2022-08-07T04:27:26.367Z,2.58
2022-08-07T04:30:02.173Z,2.42
2022-08-07T04:32:34.350Z,2.42
2022-08-07T04:35:05.369Z,2.50
2022-08-07T04:37:52.825Z,2.45
2022-08-07T04:40:29.689Z,2.67
2022-08-07T04:45:57.734Z,2.40
2022-08-07T04:48:51.002Z,2.60
2022-08-07T04:51:33.017Z,2.70
2022-08-07T04:54:07.797Z,2.80
2022-08-07T04:58:12.159Z,2.72
2022-08-07T05:00:09.563Z,2.60
2022-08-07T05:02:59.016Z,2.83
2022-08-07T05:05:53.082Z,2.65
2022-08-07T05:08:58.965Z,2.45
2022-08-07T05:11:57.437Z,2.60
2022-08-07T05:14:56.261Z,2.72
2022-08-07T05:17:52.344Z,3.17
2022-08-07T05:20:09.843Z,2.67
2022-08-07T05:22:39.094Z,2.67
2022-08-07T05:25:08.763Z,2.85
2022-08-07T05:28:16.495Z,2.80
2022-08-07T05:30:32.748Z,2.80
2022-08-07T05:33:02.423Z,2.58
2022-08-07T05:35:41.686Z,3.05
2022-08-07T05:38:12.786Z,2.70
2022-08-07T05:41:01.574Z,2.65
2022-08-07T05:43:49.532Z,2.80
2022-08-07T05:46:34.813Z,3.00
2022-08-07T05:49:11.929Z,2.92
2022-08-07T05:51:42.192Z,2.42
2022-08-07T05:54:30.215Z,2.83
2022-08-07T05:57:01.179Z,2.70
2022-08-07T05:59:47.334Z,3.00
2022-08-07T06:02:29.620Z,2.67
2022-08-07T06:05:07.996Z,2.53
2022-08-07T06:08:13.535Z,2.92
2022-08-07T06:10:30.802Z,2.92
2022-08-07T06:12:59.816Z,2.90
2022-08-07T06:15:40.428Z,2.72
2022-08-07T06:18:12.069Z,2.90
2022-08-07T06:20:51.139Z,2.80
2022-08-07T06:24:38.150Z,2.95
2022-08-07T06:26:17.803Z,2.45
2022-08-07T06:28:49.501Z,2.92
2022-08-07T06:31:20.559Z,2.60
2022-08-07T06:33:54.649Z,2.67
2022-08-07T06:36:27.539Z,2.70
2022-08-07T06:40:15.953Z,2.60
2022-08-07T06:42:19.383Z,2.40
2022-08-07T06:44:51.311Z,2.40
2022-08-07T06:47:18.892Z,2.65
2022-08-07T06:49:51.971Z,2.55
2022-08-07T06:52:35.536Z,2.55
2022-08-07T06:55:31.422Z,2.70
2022-08-07T06:58:02.771Z,2.30
2022-08-07T07:00:39.174Z,2.20
2022-08-07T07:03:13.676Z,2.30
2022-08-07T07:06:05.722Z,2.85
2022-08-07T07:08:33.237Z,2.63
2022-08-07T07:11:13.125Z,3.00
2022-08-07T07:13:58.327Z,2.70
2022-08-07T07:16:45.173Z,2.83
2022-08-07T07:19:55.895Z,2.92
2022-08-07T07:22:36.879Z,2.50
2022-08-07T07:25:14.048Z,2.42
2022-08-07T07:28:02.988Z,2.25
2022-08-07T07:33:11.894Z,2.28
2022-08-07T07:35:43.941Z,2.30
2022-08-07T07:38:30.610Z,2.10
2022-08-07T07:41:02.780Z,2.30
2022-08-07T07:43:47.882Z,1.83
2022-08-07T07:46:37.587Z,1.80
2022-08-07T07:50:32.770Z,1.80
2022-08-07T07:52:03.686Z,1.60
2022-08-07T07:54:35.833Z,1.60
2022-08-07T07:57:11.442Z,1.60
2022-08-07T07:59:52.720Z,1.50
2022-08-07T08:02:35.287Z,1.30
2022-08-07T08:05:05.409Z,1.15
2022-08-07T08:07:59.811Z,1.63
2022-08-07T08:10:37.807Z,1.27
2022-08-07T08:13:10.458Z,1.25
2022-08-07T08:15:58.870Z,1.27
2022-08-07T08:18:29.043Z,1.42
2022-08-07T08:21:00.284Z,1.00
2022-08-07T08:23:49.675Z,1.30
2022-08-07T08:26:36.825Z,1.10
2022-08-07T08:29:04.896Z,1.27
2022-08-07T08:32:10.240Z,1.17
2022-08-07T08:34:27.096Z,1.40
2022-08-07T08:36:58.326Z,1.27
2022-08-07T08:39:39.339Z,1.20
2022-08-07T08:42:43.257Z,1.38
2022-08-07T08:45:21.630Z,1.20
2022-08-07T08:47:56.560Z,1.20
2022-08-07T08:50:35.094Z,1.23
2022-08-07T08:53:13.641Z,1.05
2022-08-07T08:55:59.355Z,0.88
2022-08-07T08:58:44.727Z,0.90
2022-08-07T09:01:24.759Z,1.02
2022-08-07T09:04:25.917Z,0.90
2022-08-07T09:06:55.647Z,1.00
2022-08-07T09:09:42.649Z,1.00
2022-08-07T09:12:53.211Z,1.00
2022-08-07T09:16:22.942Z,1.08
2022-08-07T09:18:52.880Z,1.10
2022-08-07T09:22:09.849Z,1.25
2022-08-07T09:24:55.395Z,0.90
2022-08-07T09:28:00.623Z,0.77
2022-08-07T09:30:56.735Z,0.93
2022-08-07T09:34:01.286Z,0.95
2022-08-07T09:36:35.294Z,0.80
2022-08-07T09:39:54.532Z,0.68
2022-08-07T09:42:07.808Z,0.65
2022-08-07T09:47:20.247Z,0.60
2022-08-07T09:48:02.925Z,0.63
2022-08-07T09:51:14.742Z,0.77
2022-08-07T09:54:02.704Z,0.70
2022-08-07T09:56:46.403Z,0.70
2022-08-07T09:59:46.287Z,0.63
2022-08-07T10:02:55.136Z,0.70
2022-08-07T10:05:58.107Z,0.73
2022-08-07T10:09:17.802Z,0.80
2022-08-07T10:15:15.516Z,0.70
2022-08-07T10:18:03.344Z,0.50
2022-08-07T10:30:35.668Z,1.85
2022-08-07T10:33:02.529Z,0.80
2022-08-07T10:35:56.499Z,0.75
2022-08-07T10:38:47.955Z,0.70
2022-08-07T10:41:51.680Z,0.80
2022-08-07T10:44:28.727Z,1.63
2022-08-07T10:47:14.127Z,1.00
2022-08-07T10:52:56.747Z,0.68
2022-08-07T10:55:38.050Z,0.80
2022-08-07T10:58:46.081Z,0.73
2022-08-07T11:01:24.947Z,0.70
2022-08-07T11:04:23.130Z,0.70
2022-08-07T11:07:56.338Z,0.70
2022-08-07T11:10:18.159Z,0.70
2022-08-07T11:13:42.457Z,0.80
2022-08-07T11:16:15.191Z,0.60
2022-08-07T11:18:51.055Z,0.77
2022-08-07T11:21:45.480Z,0.60
2022-08-07T11:24:28.650Z,0.80
2022-08-07T11:27:20.652Z,0.90
2022-08-07T11:30:18.077Z,0.73
2022-08-07T11:33:17.974Z,0.90
2022-08-07T11:43:15.362Z,0.90
2022-08-07T11:46:07.451Z,0.80
2022-08-07T11:49:50.131Z,0.95
2022-08-07T11:52:35.807Z,0.80
2022-08-07T11:56:09.594Z,0.88
2022-08-07T11:58:18.419Z,2.03
2022-08-07T12:01:10.590Z,0.80
2022-08-07T12:04:02.314Z,0.90
2022-08-07T12:06:56.191Z,1.00
2022-08-07T12:09:42.935Z,0.70
2022-08-07T12:13:36.613Z,0.82
2022-08-07T12:16:11.885Z,1.08
2022-08-07T12:18:57.528Z,2.83
2022-08-07T12:22:37.872Z,1.50
2022-08-07T12:26:05.829Z,0.70
2022-08-07T12:28:32.105Z,0.80
2022-08-07T12:31:05.889Z,0.90
2022-08-07T12:34:01.499Z,1.00
2022-08-07T12:36:33.276Z,0.70
2022-08-07T12:39:38.841Z,0.63
2022-08-07T12:41:54.000Z,0.80
2022-08-07T12:44:25.760Z,0.80
2022-08-07T12:47:14.026Z,0.60
2022-08-07T12:50:05.106Z,0.52
2022-08-07T12:53:17.931Z,0.73
2022-08-07T12:56:10.162Z,0.60
2022-08-07T12:58:40.204Z,0.47
2022-08-07T13:01:37.785Z,0.60
2022-08-07T13:04:48.994Z,0.60
2022-08-07T13:08:14.315Z,0.90
2022-08-07T13:10:54.080Z,0.70
2022-08-07T13:13:54.338Z,2.30
2022-08-07T13:16:46.713Z,0.60
2022-08-07T13:19:46.287Z,0.80
2022-08-07T13:22:34.282Z,0.63
2022-08-07T13:25:24.106Z,0.57
2022-08-07T13:28:10.806Z,0.60
2022-08-07T13:34:34.443Z,0.70
2022-08-07T13:36:41.654Z,0.70
2022-08-07T13:40:34.165Z,0.40
2022-08-07T13:42:21.613Z,0.57
2022-08-07T13:45:20.606Z,0.52
2022-08-07T13:48:06.803Z,0.35
2022-08-07T13:50:55.673Z,0.45
2022-08-07T13:53:59.529Z,0.40
2022-08-07T13:56:36.170Z,0.45
2022-08-07T13:59:13.894Z,0.70
2022-08-07T14:01:51.253Z,0.40
2022-08-07T14:04:36.769Z,0.63
2022-08-07T14:07:10.097Z,0.68
2022-08-07T14:10:02.110Z,0.50
2022-08-07T14:12:54.102Z,0.40
2022-08-07T14:15:43.041Z,0.40
2022-08-07T14:18:30.841Z,0.63
2022-08-07T14:21:21.262Z,0.52
2022-08-07T14:24:27.440Z,0.50
2022-08-07T14:27:00.345Z,0.43
2022-08-07T14:30:06.367Z,0.43
2022-08-07T14:32:31.966Z,0.47
2022-08-07T14:35:06.063Z,0.55
2022-08-07T14:37:39.880Z,0.30
2022-08-07T14:40:26.348Z,0.60
2022-08-07T14:43:58.159Z,0.55
2022-08-07T14:46:04.564Z,0.40
2022-08-07T14:48:38.335Z,0.50
2022-08-07T14:51:15.742Z,0.63
2022-08-07T14:54:05.850Z,0.52
2022-08-07T14:56:38.939Z,0.52
2022-08-07T14:59:13.943Z,0.50
2022-08-07T15:02:32.091Z,0.70
2022-08-07T15:05:02.133Z,0.60
2022-08-07T15:10:26.650Z,0.60
2022-08-07T15:13:19.768Z,0.70
2022-08-07T15:15:53.572Z,0.60
2022-08-07T15:18:46.632Z,0.50
2022-08-07T15:21:44.784Z,0.63
2022-08-07T15:25:14.125Z,0.50
2022-08-07T15:27:21.747Z,0.50
2022-08-07T15:33:01.411Z,0.57
2022-08-07T15:38:33.064Z,0.47
2022-08-07T15:42:46.394Z,0.57
2022-08-07T15:44:12.396Z,0.60
2022-08-07T15:46:51.702Z,0.60
2022-08-07T15:50:05.831Z,0.70
2022-08-07T15:52:21.644Z,0.65
2022-08-07T15:55:02.588Z,0.63
2022-08-07T15:57:48.138Z,0.60
2022-08-07T16:00:31.847Z,0.70
2022-08-07T16:05:32.395Z,0.70
2022-08-07T16:08:42.438Z,0.82
2022-08-07T16:11:46.924Z,0.75
2022-08-07T16:14:33.119Z,0.70
2022-08-07T16:18:01.679Z,0.63
2022-08-07T16:20:36.882Z,0.98
2022-08-07T16:23:53.159Z,0.65
2022-08-07T16:26:35.658Z,0.60
2022-08-07T16:30:11.187Z,0.80
2022-08-07T16:32:38.792Z,0.77
2022-08-07T16:35:52.032Z,0.70
2022-08-07T16:38:44.388Z,0.80
2022-08-07T16:41:17.336Z,0.70
2022-08-07T16:44:47.184Z,0.90
2022-08-07T16:47:49.700Z,0.60
2022-08-07T16:50:52.624Z,0.50
2022-08-07T16:53:57.160Z,0.65
2022-08-07T16:56:42.252Z,0.90
2022-08-07T16:59:51.073Z,0.70
2022-08-07T17:02:53.171Z,0.95
2022-08-07T17:06:28.440Z,0.82
2022-08-07T17:09:09.567Z,0.80
2022-08-07T17:12:33.412Z,0.70
2022-08-07T17:15:03.501Z,0.95
2022-08-07T17:17:52.190Z,1.00
2022-08-07T17:20:41.769Z,0.90
2022-08-07T17:23:31.891Z,1.17
2022-08-07T17:26:24.132Z,0.75
2022-08-07T17:28:58.147Z,0.90
2022-08-07T17:31:34.054Z,1.00
2022-08-07T17:34:35.478Z,0.95
2022-08-07T17:38:06.439Z,0.90
2022-08-07T17:40:42.692Z,1.00
2022-08-07T17:44:01.522Z,0.68
2022-08-07T17:46:41.760Z,0.80
2022-08-07T17:49:22.946Z,0.98
2022-08-07T17:52:13.799Z,0.70
2022-08-07T17:54:53.698Z,0.77
2022-08-07T17:57:58.406Z,1.00
2022-08-07T18:00:49.081Z,1.08
2022-08-07T18:04:04.641Z,1.30
2022-08-07T18:06:43.056Z,0.90
2022-08-07T18:09:16.544Z,0.98
2022-08-07T18:12:11.867Z,0.90
2022-08-07T18:14:49.912Z,1.02
2022-08-07T18:18:47.400Z,1.05
2022-08-07T18:21:05.870Z,0.70
2022-08-07T18:23:56.122Z,0.80
2022-08-07T18:26:40.751Z,1.00
2022-08-07T18:30:05.801Z,1.23
2022-08-07T18:32:16.909Z,1.90
2022-08-07T18:35:10.376Z,1.80
2022-08-07T18:38:57.071Z,1.80
2022-08-07T18:41:45.030Z,2.13
2022-08-07T18:44:25.377Z,1.60
2022-08-07T18:47:22.608Z,1.48
2022-08-07T18:50:32.737Z,1.58
2022-08-07T18:52:53.931Z,1.60
2022-08-07T18:55:40.979Z,2.22
2022-08-07T18:58:34.115Z,1.65
2022-08-07T19:02:19.028Z,3.22
2022-08-07T19:04:54.552Z,3.58
2022-08-07T19:08:03.950Z,1.40
2022-08-07T19:10:51.404Z,1.30
2022-08-07T19:13:44.569Z,1.58
2022-08-07T19:17:04.666Z,1.20
2022-08-07T19:19:50.618Z,1.27
2022-08-07T19:22:36.183Z,1.20
2022-08-07T19:26:24.049Z,1.30
2022-08-07T19:28:57.638Z,1.25
2022-08-07T19:31:42.837Z,2.00
2022-08-07T19:34:04.956Z,1.70
2022-08-07T19:36:38.945Z,1.48
2022-08-07T19:39:10.426Z,1.27
2022-08-07T19:42:08.137Z,1.55
2022-08-07T19:44:48.718Z,1.90
2022-08-07T19:47:27.336Z,1.65
2022-08-07T19:50:02.889Z,1.90
2022-08-07T19:52:59.058Z,1.52
2022-08-07T19:55:56.704Z,1.52
2022-08-07T19:58:18.424Z,1.55
2022-08-07T20:00:57.506Z,1.20
2022-08-07T20:03:34.619Z,1.15
2022-08-07T20:06:05.084Z,1.30
2022-08-07T20:08:40.954Z,3.28
2022-08-07T20:11:47.416Z,1.98
2022-08-07T20:14:07.262Z,1.50
2022-08-07T20:16:45.309Z,1.63
2022-08-07T20:19:47.592Z,1.40
2022-08-07T20:22:29.246Z,1.60
2022-08-07T20:25:19.947Z,1.52
2022-08-07T20:27:58.365Z,1.40
2022-08-07T20:30:34.621Z,1.80
2022-08-07T20:33:36.936Z,2.50
2022-08-07T20:36:24.488Z,3.00
2022-08-07T20:39:00.688Z,3.00
2022-08-07T20:41:50.756Z,4.63
2022-08-07T20:44:21.360Z,2.30
2022-08-07T20:47:05.488Z,1.67
2022-08-07T20:49:57.751Z,1.85
2022-08-07T20:52:50.804Z,2.00
2022-08-07T20:55:13.767Z,1.95
2022-08-07T21:11:58.140Z,2.10
2022-08-07T21:14:34.115Z,2.00
2022-08-07T21:25:43.761Z,2.25
2022-08-07T21:34:32.356Z,2.00
2022-08-07T21:40:16.618Z,1.80
2022-08-07T21:48:34.449Z,1.75
2022-08-07T21:51:08.089Z,2.15
2022-08-07T21:53:53.968Z,1.85
2022-08-07T21:56:53.801Z,2.03
2022-08-07T22:00:04.403Z,2.20
2022-08-07T22:02:47.373Z,1.75
2022-08-07T22:05:44.878Z,1.95
2022-08-07T22:10:56.105Z,1.75
2022-08-07T22:13:52.353Z,2.08
2022-08-07T22:19:16.232Z,2.40
2022-08-07T22:22:21.570Z,2.03
2022-08-07T22:25:12.082Z,1.67
2022-08-07T22:28:29.575Z,1.88
2022-08-07T22:33:56.775Z,2.53
2022-08-07T22:36:42.844Z,2.03
2022-08-07T22:39:25.037Z,1.65
2022-08-07T22:42:30.350Z,1.70
2022-08-07T22:45:03.649Z,1.73
2022-08-07T22:47:58.926Z,1.83
2022-08-07T22:50:39.007Z,1.77
2022-08-07T22:54:09.185Z,5.65
2022-08-07T22:56:28.904Z,1.80
2022-08-07T22:59:32.707Z,1.90
2022-08-07T23:02:12.408Z,2.10
2022-08-07T23:06:06.761Z,2.13
2022-08-07T23:07:57.896Z,1.83
2022-08-07T23:10:52.985Z,1.85
2022-08-07T23:14:15.040Z,2.08
2022-08-07T23:17:22.056Z,1.90
2022-08-07T23:20:09.667Z,1.85
2022-08-07T23:23:09.781Z,1.77
2022-08-07T23:26:07.326Z,1.70
2022-08-07T23:28:56.322Z,2.22
2022-08-07T23:32:49.387Z,2.08
2022-08-07T23:34:50.959Z,2.00
2022-08-07T23:37:20.090Z,2.05
2022-08-07T23:40:07.755Z,3.20
2022-08-07T23:46:02.787Z,1.88
2022-08-07T23:48:52.209Z,1.90
2022-08-07T23:53:00.257Z,2.00
2022-08-07T23:54:46.103Z,1.80
2022-08-07T23:57:18.374Z,2.03
